Osgood, Idaho
Current Conditions -  °F | °C
As of 8:53 AM on Sunday 25 Jan 2015 (Local Time) from KIDA Reporting Station
Haze Haze  
Wind Chill: 28°   Ceiling: 300
Heat Index: 28°   Visibility: 1mi
Dew Point: 27°   Wind: 3mph
Humidity: 96%   Direction: 340°NNW
Pressure: 30.45"   Gusts: NA
Location:  43.498°N, 111.73°W
Report Text: KIDA 251553Z 34003KT 1SM R20/P6000FT BR BKN003 OVC010 M02/M03 A3045 RMK AO2 SLP349 I1001 T10221028
Loading
Personal Weather Stations






























Interactive Weather Map New forecast layout! Learn more

10-Day Weather Forecast

Advertisements
Track Severe Weather on mobile